»·PEaware :: N224LW KPDX-KONP

N224LW :: KPDX-KONP

FLIGHT INFORMATION

Flight Status: Arrived
Operator: Privately registered:
United States
More flights under this callsign
Pilot: Rod T. (6553)
Aircraft: CIRRUS SR-22 TURBO
(S22T)
More flights by this aircraft type
Origin: KPDX Portland Intl
United States
Destination: KONP Newport Mun
United States
More flights between these airports :: More routes between these airports
Route: +PTLD1 UBG V182 ONP
File this flight plan on PilotEdge
Remarks:
Altitude:
(Current/Filed)
10,000ft
Speed:
(Current/Filed)
180kts
Departed: 23-Jul-18 08:24 PM
Arrived: 23-Jul-18 09:12 PM
Distance/Time
Traveled:
87nm/0:48
Distance/Time
To Go:
Arrived

Flight Plot

Page will automatically refresh every two minutes.

Flight plan parsing failed; only flown route is shown


Map Options




Map Legend


Flown Route
Filed Route
Departure Airport
Arrival Airport
Navaid (VOR, NDB)
Fix

Horizontal Profiles

Position Reports

Time Latitude Longitude Heading Altitude Ground
Speed
23-Jul-18 20:13 45.587413 -122.583720 27 31ft 0kts
23-Jul-18 20:14 45.587413 -122.583720 27 31ft 0kts
23-Jul-18 20:15 45.587413 -122.583720 27 31ft 0kts
23-Jul-18 20:16 45.587413 -122.583720 27 31ft 0kts
23-Jul-18 20:17 45.587413 -122.583720 27 31ft 0kts
23-Jul-18 20:18 45.587413 -122.583720 27 31ft 0kts
23-Jul-18 20:19 45.587413 -122.583720 27 31ft 0kts
23-Jul-18 20:20 45.587413 -122.583720 27 31ft 0kts
23-Jul-18 20:21 45.587413 -122.583720 27 31ft 0kts
23-Jul-18 20:22 45.587514 -122.583640 27 31ft 6kts
23-Jul-18 20:23 45.586268 -122.576964 117 31ft 25kts
23-Jul-18 20:24 45.583022 -122.568614 118 31ft 23kts
23-Jul-18 20:25 45.586239 -122.573746 300 55ft 91kts
23-Jul-18 20:26 45.599604 -122.611152 297 1331ft 116kts
23-Jul-18 20:27 45.608497 -122.654986 235 2821ft 128kts
23-Jul-18 20:28 45.578453 -122.682290 220 4341ft 130kts
23-Jul-18 20:29 45.551307 -122.716377 224 5828ft 132kts
23-Jul-18 20:30 45.524401 -122.751663 225 7319ft 131kts
23-Jul-18 20:31 45.497969 -122.786750 224 8793ft 130kts
23-Jul-18 20:32 45.471520 -122.822200 223 9980ft 146kts
23-Jul-18 20:33 45.437913 -122.866700 223 9978ft 174kts
23-Jul-18 20:34 45.401714 -122.914305 223 9976ft 179kts
23-Jul-18 20:35 45.364987 -122.962518 223 9976ft 180kts
23-Jul-18 20:36 45.329023 -123.012237 225 9977ft 180kts
23-Jul-18 20:37 45.293558 -123.062492 225 9984ft 180kts
23-Jul-18 20:38 45.258149 -123.112585 225 9984ft 180kts
23-Jul-18 20:39 45.222702 -123.162631 225 9984ft 180kts
23-Jul-18 20:40 45.187381 -123.212417 225 9984ft 180kts
23-Jul-18 20:41 45.151836 -123.262423 225 9984ft 180kts
23-Jul-18 20:42 45.116190 -123.312477 225 9984ft 180kts
23-Jul-18 20:43 45.080555 -123.362419 225 9984ft 180kts
23-Jul-18 20:44 45.044965 -123.412209 225 9983ft 180kts
23-Jul-18 20:45 45.021289 -123.445283 225 9983ft 180kts
23-Jul-18 20:46 45.001416 -123.472988 225 9983ft 180kts
23-Jul-18 20:47 44.965684 -123.522780 225 9983ft 180kts
23-Jul-18 20:48 44.925543 -123.562811 200 9984ft 182kts
23-Jul-18 20:49 44.877605 -123.584683 200 9985ft 182kts
23-Jul-18 20:50 44.827204 -123.607625 200 9423ft 198kts
23-Jul-18 20:51 44.774379 -123.631635 200 8728ft 201kts
23-Jul-18 20:52 44.721068 -123.655615 199 8024ft 202kts
23-Jul-18 20:53 44.667464 -123.679673 199 7329ft 203kts
23-Jul-18 20:54 44.613674 -123.704024 199 6632ft 204kts
23-Jul-18 20:55 44.559832 -123.728782 199 5935ft 204kts
23-Jul-18 20:56 44.508471 -123.752517 199 5892ft 188kts
23-Jul-18 20:57 44.456857 -123.776408 199 5306ft 201kts
23-Jul-18 20:58 44.409575 -123.798415 199 4888ft 194kts
23-Jul-18 20:59 44.360614 -123.821066 199 5000ft 182kts
23-Jul-18 21:00 44.312681 -123.843165 199 5000ft 181kts
23-Jul-18 21:01 44.274008 -123.878004 274 4998ft 174kts
23-Jul-18 21:02 44.293582 -123.937749 287 4998ft 161kts
23-Jul-18 21:03 44.321760 -123.962532 346 3772ft 107kts
23-Jul-18 21:04 44.356160 -123.977582 340 2693ft 120kts
23-Jul-18 21:05 44.383878 -123.991646 339 2704ft 112kts
23-Jul-18 21:06 44.414676 -124.006536 346 2617ft 114kts
23-Jul-18 21:07 44.444917 -124.016616 346 2120ft 109kts
23-Jul-18 21:08 44.475456 -124.026853 346 2102ft 117kts
23-Jul-18 21:09 44.502509 -124.036289 345 1826ft 98kts
23-Jul-18 21:10 44.530229 -124.045913 345 1097ft 106kts
23-Jul-18 21:11 44.557331 -124.055307 345 550ft 88kts
23-Jul-18 21:12 44.574962 -124.058581 356 162ft 60kts
23-Jul-18 21:13 44.583103 -124.060140 219 162ft 10kts
23-Jul-18 21:14 44.579091 -124.061506 243 162ft 9kts

Navigation Log

Ident Type
Flight plan parsing failed, navigation log unavailable